sensor_id;sensor_type;location;lat;lon;timestamp;temperature;humidity
21108;DHT22;10712;52.944;9.098;2022-12-07T00:01:13;4.00;94.30
21108;DHT22;10712;52.944;9.098;2022-12-07T00:03:40;4.10;94.30
21108;DHT22;10712;52.944;9.098;2022-12-07T00:06:08;4.10;94.30
21108;DHT22;10712;52.944;9.098;2022-12-07T00:08:36;4.20;94.30
21108;DHT22;10712;52.944;9.098;2022-12-07T00:11:09;4.20;94.30
21108;DHT22;10712;52.944;9.098;2022-12-07T00:13:37;4.20;94.30
21108;DHT22;10712;52.944;9.098;2022-12-07T00:16:04;4.20;94.30
21108;DHT22;10712;52.944;9.098;2022-12-07T00:18:41;4.20;94.30
21108;DHT22;10712;52.944;9.098;2022-12-07T00:21:11;4.20;94.30
21108;DHT22;10712;52.944;9.098;2022-12-07T00:23:39;4.20;94.30
21108;DHT22;10712;52.944;9.098;2022-12-07T00:26:06;4.20;94.30
21108;DHT22;10712;52.944;9.098;2022-12-07T00:28:34;4.20;94.30
21108;DHT22;10712;52.944;9.098;2022-12-07T00:31:07;4.20;94.30
21108;DHT22;10712;52.944;9.098;2022-12-07T00:33:34;4.20;94.30
21108;DHT22;10712;52.944;9.098;2022-12-07T00:36:01;4.20;94.30
21108;DHT22;10712;52.944;9.098;2022-12-07T00:38:30;4.20;94.30
21108;DHT22;10712;52.944;9.098;2022-12-07T00:40:58;4.10;94.30
21108;DHT22;10712;52.944;9.098;2022-12-07T00:43:24;4.10;94.30
21108;DHT22;10712;52.944;9.098;2022-12-07T00:45:51;4.10;94.30
21108;DHT22;10712;52.944;9.098;2022-12-07T00:48:17;4.00;94.30
21108;DHT22;10712;52.944;9.098;2022-12-07T00:50:42;4.00;94.30
21108;DHT22;10712;52.944;9.098;2022-12-07T00:53:08;4.00;94.30
21108;DHT22;10712;52.944;9.098;2022-12-07T00:55:34;4.00;94.30
21108;DHT22;10712;52.944;9.098;2022-12-07T00:58:00;4.00;94.30
21108;DHT22;10712;52.944;9.098;2022-12-07T01:00:26;3.90;94.30
21108;DHT22;10712;52.944;9.098;2022-12-07T01:02:52;3.90;94.30
21108;DHT22;10712;52.944;9.098;2022-12-07T01:05:18;3.90;94.30
21108;DHT22;10712;52.944;9.098;2022-12-07T01:07:43;3.80;94.30
21108;DHT22;10712;52.944;9.098;2022-12-07T01:10:09;3.80;94.30
21108;DHT22;10712;52.944;9.098;2022-12-07T01:12:35;3.80;94.30
21108;DHT22;10712;52.944;9.098;2022-12-07T01:15:01;3.80;94.30
21108;DHT22;10712;52.944;9.098;2022-12-07T01:17:27;3.80;94.30
21108;DHT22;10712;52.944;9.098;2022-12-07T01:19:53;3.80;94.30
21108;DHT22;10712;52.944;9.098;2022-12-07T01:22:19;3.90;94.30
21108;DHT22;10712;52.944;9.098;2022-12-07T01:24:45;3.90;94.30
21108;DHT22;10712;52.944;9.098;2022-12-07T01:27:12;3.90;94.30
21108;DHT22;10712;52.944;9.098;2022-12-07T01:29:39;3.90;94.30
21108;DHT22;10712;52.944;9.098;2022-12-07T01:32:05;3.90;94.30
21108;DHT22;10712;52.944;9.098;2022-12-07T01:34:31;3.90;94.30
21108;DHT22;10712;52.944;9.098;2022-12-07T01:36:56;3.90;94.30
21108;DHT22;10712;52.944;9.098;2022-12-07T01:39:23;3.90;94.30
21108;DHT22;10712;52.944;9.098;2022-12-07T01:41:49;3.80;94.30
21108;DHT22;10712;52.944;9.098;2022-12-07T01:44:27;3.80;94.30
21108;DHT22;10712;52.944;9.098;2022-12-07T01:46:59;3.90;94.30
21108;DHT22;10712;52.944;9.098;2022-12-07T01:54:50;3.90;94.30
21108;DHT22;10712;52.944;9.098;2022-12-07T01:57:19;3.90;94.30
21108;DHT22;10712;52.944;9.098;2022-12-07T01:59:47;3.90;94.30
21108;DHT22;10712;52.944;9.098;2022-12-07T02:02:19;3.90;94.30
21108;DHT22;10712;52.944;9.098;2022-12-07T02:04:50;3.90;94.30
21108;DHT22;10712;52.944;9.098;2022-12-07T02:07:17;3.80;94.30
21108;DHT22;10712;52.944;9.098;2022-12-07T02:09:43;3.80;94.30
21108;DHT22;10712;52.944;9.098;2022-12-07T02:12:08;3.80;94.30
21108;DHT22;10712;52.944;9.098;2022-12-07T02:14:34;3.80;94.30
21108;DHT22;10712;52.944;9.098;2022-12-07T02:17:09;3.80;94.30
21108;DHT22;10712;52.944;9.098;2022-12-07T02:30:42;3.70;94.30
21108;DHT22;10712;52.944;9.098;2022-12-07T02:33:19;3.60;94.30
21108;DHT22;10712;52.944;9.098;2022-12-07T02:35:55;3.60;94.30
21108;DHT22;10712;52.944;9.098;2022-12-07T02:38:58;3.60;94.30
21108;DHT22;10712;52.944;9.098;2022-12-07T02:41:29;3.60;94.30
21108;DHT22;10712;52.944;9.098;2022-12-07T02:44:02;3.60;94.30
21108;DHT22;10712;52.944;9.098;2022-12-07T02:46:36;3.60;94.30
21108;DHT22;10712;52.944;9.098;2022-12-07T02:49:05;3.60;94.30
21108;DHT22;10712;52.944;9.098;2022-12-07T02:51:33;3.50;94.30
21108;DHT22;10712;52.944;9.098;2022-12-07T02:54:07;3.50;94.30
21108;DHT22;10712;52.944;9.098;2022-12-07T02:56:39;3.50;94.30
21108;DHT22;10712;52.944;9.098;2022-12-07T03:10:35;3.50;94.30
21108;DHT22;10712;52.944;9.098;2022-12-07T03:13:09;3.50;94.30
21108;DHT22;10712;52.944;9.098;2022-12-07T03:18:20;3.50;94.30
21108;DHT22;10712;52.944;9.098;2022-12-07T03:20:49;3.50;94.30
21108;DHT22;10712;52.944;9.098;2022-12-07T03:23:18;3.50;94.30
21108;DHT22;10712;52.944;9.098;2022-12-07T03:25:49;3.50;94.30
21108;DHT22;10712;52.944;9.098;2022-12-07T03:28:22;3.50;94.30
21108;DHT22;10712;52.944;9.098;2022-12-07T03:30:54;3.50;94.30
21108;DHT22;10712;52.944;9.098;2022-12-07T03:33:29;3.50;94.30
21108;DHT22;10712;52.944;9.098;2022-12-07T03:36:09;3.50;94.30
21108;DHT22;10712;52.944;9.098;2022-12-07T03:38:49;3.50;94.30
21108;DHT22;10712;52.944;9.098;2022-12-07T03:41:25;3.60;94.30
21108;DHT22;10712;52.944;9.098;2022-12-07T03:43:54;3.60;94.30
21108;DHT22;10712;52.944;9.098;2022-12-07T03:46:27;3.60;94.30
21108;DHT22;10712;52.944;9.098;2022-12-07T03:54:39;3.60;94.30
21108;DHT22;10712;52.944;9.098;2022-12-07T03:57:14;3.60;94.30
21108;DHT22;10712;52.944;9.098;2022-12-07T03:59:41;3.60;94.30
21108;DHT22;10712;52.944;9.098;2022-12-07T04:02:08;3.60;94.30
21108;DHT22;10712;52.944;9.098;2022-12-07T04:04:38;3.60;94.30
21108;DHT22;10712;52.944;9.098;2022-12-07T04:07:04;3.60;94.30
21108;DHT22;10712;52.944;9.098;2022-12-07T04:09:30;3.60;94.30
21108;DHT22;10712;52.944;9.098;2022-12-07T04:11:55;3.60;94.30
21108;DHT22;10712;52.944;9.098;2022-12-07T04:14:21;3.60;94.30
21108;DHT22;10712;52.944;9.098;2022-12-07T04:16:47;3.70;94.30
21108;DHT22;10712;52.944;9.098;2022-12-07T04:19:18;3.70;94.30
21108;DHT22;10712;52.944;9.098;2022-12-07T04:21:45;3.70;94.30
21108;DHT22;10712;52.944;9.098;2022-12-07T04:24:12;3.70;94.30
21108;DHT22;10712;52.944;9.098;2022-12-07T04:26:39;3.70;94.30
21108;DHT22;10712;52.944;9.098;2022-12-07T04:29:06;3.70;94.30
21108;DHT22;10712;52.944;9.098;2022-12-07T04:31:31;3.70;94.30
21108;DHT22;10712;52.944;9.098;2022-12-07T04:33:57;3.70;94.30
21108;DHT22;10712;52.944;9.098;2022-12-07T04:36:23;3.70;94.30
21108;DHT22;10712;52.944;9.098;2022-12-07T04:38:49;3.70;94.30
21108;DHT22;10712;52.944;9.098;2022-12-07T04:41:14;3.70;94.30
21108;DHT22;10712;52.944;9.098;2022-12-07T04:43:40;3.70;94.30
21108;DHT22;10712;52.944;9.098;2022-12-07T04:46:06;3.70;94.30
21108;DHT22;10712;52.944;9.098;2022-12-07T04:48:31;3.70;94.30
21108;DHT22;10712;52.944;9.098;2022-12-07T04:50:57;3.70;94.30
21108;DHT22;10712;52.944;9.098;2022-12-07T04:53:23;3.70;94.30
21108;DHT22;10712;52.944;9.098;2022-12-07T04:55:48;3.70;94.30
21108;DHT22;10712;52.944;9.098;2022-12-07T04:58:14;3.70;94.30
21108;DHT22;10712;52.944;9.098;2022-12-07T05:00:40;3.70;94.30
21108;DHT22;10712;52.944;9.098;2022-12-07T05:03:06;3.70;94.30
21108;DHT22;10712;52.944;9.098;2022-12-07T05:05:32;3.70;94.30
21108;DHT22;10712;52.944;9.098;2022-12-07T05:07:58;3.70;94.30
21108;DHT22;10712;52.944;9.098;2022-12-07T05:10:23;3.70;94.30
21108;DHT22;10712;52.944;9.098;2022-12-07T05:12:49;3.70;94.30
21108;DHT22;10712;52.944;9.098;2022-12-07T05:15:15;3.70;94.30
21108;DHT22;10712;52.944;9.098;2022-12-07T05:17:41;3.70;94.30
21108;DHT22;10712;52.944;9.098;2022-12-07T05:20:07;3.70;94.30
21108;DHT22;10712;52.944;9.098;2022-12-07T05:22:34;3.60;94.30
21108;DHT22;10712;52.944;9.098;2022-12-07T05:24:59;3.60;94.30
21108;DHT22;10712;52.944;9.098;2022-12-07T05:27:25;3.60;94.30
21108;DHT22;10712;52.944;9.098;2022-12-07T05:29:51;3.60;94.30
21108;DHT22;10712;52.944;9.098;2022-12-07T05:32:18;3.60;94.30
21108;DHT22;10712;52.944;9.098;2022-12-07T05:34:44;3.60;94.30
21108;DHT22;10712;52.944;9.098;2022-12-07T05:37:10;3.60;94.30
21108;DHT22;10712;52.944;9.098;2022-12-07T05:39:38;3.60;94.30
21108;DHT22;10712;52.944;9.098;2022-12-07T05:42:06;3.60;94.30
21108;DHT22;10712;52.944;9.098;2022-12-07T05:44:40;3.60;94.30
21108;DHT22;10712;52.944;9.098;2022-12-07T05:47:07;3.50;94.30
21108;DHT22;10712;52.944;9.098;2022-12-07T05:49:33;3.50;94.30
21108;DHT22;10712;52.944;9.098;2022-12-07T05:51:59;3.50;94.30
21108;DHT22;10712;52.944;9.098;2022-12-07T05:54:25;3.50;94.30
21108;DHT22;10712;52.944;9.098;2022-12-07T05:56:50;3.50;94.30
21108;DHT22;10712;52.944;9.098;2022-12-07T05:59:16;3.50;94.30
21108;DHT22;10712;52.944;9.098;2022-12-07T06:01:57;3.50;94.30
21108;DHT22;10712;52.944;9.098;2022-12-07T06:04:25;3.40;94.30
21108;DHT22;10712;52.944;9.098;2022-12-07T06:06:52;3.40;94.30
21108;DHT22;10712;52.944;9.098;2022-12-07T06:09:19;3.40;94.30
21108;DHT22;10712;52.944;9.098;2022-12-07T06:11:46;3.40;94.30
21108;DHT22;10712;52.944;9.098;2022-12-07T06:14:30;3.40;94.30
21108;DHT22;10712;52.944;9.098;2022-12-07T06:16:56;3.40;94.30
21108;DHT22;10712;52.944;9.098;2022-12-07T06:19:22;3.40;94.30
21108;DHT22;10712;52.944;9.098;2022-12-07T06:21:48;3.30;94.30
21108;DHT22;10712;52.944;9.098;2022-12-07T06:24:14;3.30;94.30
21108;DHT22;10712;52.944;9.098;2022-12-07T06:26:41;3.40;94.30
21108;DHT22;10712;52.944;9.098;2022-12-07T06:29:07;3.30;94.30
21108;DHT22;10712;52.944;9.098;2022-12-07T06:31:33;3.30;94.30
21108;DHT22;10712;52.944;9.098;2022-12-07T06:34:00;3.30;94.30
21108;DHT22;10712;52.944;9.098;2022-12-07T06:36:28;3.30;94.30
21108;DHT22;10712;52.944;9.098;2022-12-07T06:38:54;3.30;94.30
21108;DHT22;10712;52.944;9.098;2022-12-07T06:41:20;3.30;94.30
21108;DHT22;10712;52.944;9.098;2022-12-07T06:43:46;3.30;94.30
21108;DHT22;10712;52.944;9.098;2022-12-07T06:46:12;3.30;94.30
21108;DHT22;10712;52.944;9.098;2022-12-07T06:48:39;3.30;94.30
21108;DHT22;10712;52.944;9.098;2022-12-07T06:51:06;3.30;94.30
21108;DHT22;10712;52.944;9.098;2022-12-07T06:53:32;3.30;94.30
21108;DHT22;10712;52.944;9.098;2022-12-07T06:55:58;3.40;94.30
21108;DHT22;10712;52.944;9.098;2022-12-07T06:58:23;3.40;94.30
21108;DHT22;10712;52.944;9.098;2022-12-07T07:00:49;3.30;94.30
21108;DHT22;10712;52.944;9.098;2022-12-07T07:03:15;3.30;94.30
21108;DHT22;10712;52.944;9.098;2022-12-07T07:05:42;3.40;94.30
21108;DHT22;10712;52.944;9.098;2022-12-07T07:08:08;3.40;94.30
21108;DHT22;10712;52.944;9.098;2022-12-07T07:10:35;3.40;94.30
21108;DHT22;10712;52.944;9.098;2022-12-07T07:13:01;3.40;94.30
21108;DHT22;10712;52.944;9.098;2022-12-07T07:15:27;3.40;94.30
21108;DHT22;10712;52.944;9.098;2022-12-07T07:17:52;3.40;94.30
21108;DHT22;10712;52.944;9.098;2022-12-07T07:20:18;3.40;94.30
21108;DHT22;10712;52.944;9.098;2022-12-07T07:22:44;3.40;94.30
21108;DHT22;10712;52.944;9.098;2022-12-07T07:25:10;3.40;94.30
21108;DHT22;10712;52.944;9.098;2022-12-07T07:27:35;3.40;94.30
21108;DHT22;10712;52.944;9.098;2022-12-07T07:30:01;3.40;94.30
21108;DHT22;10712;52.944;9.098;2022-12-07T07:32:27;3.40;94.30
21108;DHT22;10712;52.944;9.098;2022-12-07T07:34:53;3.40;94.30
21108;DHT22;10712;52.944;9.098;2022-12-07T07:37:18;3.40;94.30
21108;DHT22;10712;52.944;9.098;2022-12-07T07:39:44;3.40;94.30
21108;DHT22;10712;52.944;9.098;2022-12-07T07:42:10;3.40;94.30
21108;DHT22;10712;52.944;9.098;2022-12-07T07:44:37;3.40;94.30
21108;DHT22;10712;52.944;9.098;2022-12-07T07:47:03;3.40;94.30
21108;DHT22;10712;52.944;9.098;2022-12-07T07:49:29;3.40;94.30
21108;DHT22;10712;52.944;9.098;2022-12-07T07:51:55;3.40;94.30
21108;DHT22;10712;52.944;9.098;2022-12-07T07:54:20;3.40;94.30
21108;DHT22;10712;52.944;9.098;2022-12-07T07:56:46;3.50;94.30
21108;DHT22;10712;52.944;9.098;2022-12-07T07:59:11;3.40;94.30
21108;DHT22;10712;52.944;9.098;2022-12-07T08:01:37;3.40;94.30
21108;DHT22;10712;52.944;9.098;2022-12-07T08:04:03;3.40;94.30
21108;DHT22;10712;52.944;9.098;2022-12-07T08:06:29;3.40;94.30
21108;DHT22;10712;52.944;9.098;2022-12-07T08:08:54;3.40;94.30
21108;DHT22;10712;52.944;9.098;2022-12-07T08:11:20;3.40;94.30
21108;DHT22;10712;52.944;9.098;2022-12-07T08:13:46;3.40;94.30
21108;DHT22;10712;52.944;9.098;2022-12-07T08:16:12;3.40;94.30
21108;DHT22;10712;52.944;9.098;2022-12-07T08:18:38;3.40;94.30
21108;DHT22;10712;52.944;9.098;2022-12-07T08:21:06;3.40;94.30
21108;DHT22;10712;52.944;9.098;2022-12-07T08:23:32;3.40;94.30
21108;DHT22;10712;52.944;9.098;2022-12-07T08:26:02;3.40;94.30
21108;DHT22;10712;52.944;9.098;2022-12-07T08:28:30;3.40;94.30
21108;DHT22;10712;52.944;9.098;2022-12-07T08:30:59;3.40;94.30
21108;DHT22;10712;52.944;9.098;2022-12-07T08:33:26;3.40;94.30
21108;DHT22;10712;52.944;9.098;2022-12-07T08:35:51;3.40;94.30
21108;DHT22;10712;52.944;9.098;2022-12-07T08:38:17;3.40;94.30
21108;DHT22;10712;52.944;9.098;2022-12-07T08:40:43;3.40;94.30
21108;DHT22;10712;52.944;9.098;2022-12-07T08:43:08;3.40;94.30
21108;DHT22;10712;52.944;9.098;2022-12-07T08:45:34;3.40;94.30
21108;DHT22;10712;52.944;9.098;2022-12-07T08:48:07;3.40;94.30
21108;DHT22;10712;52.944;9.098;2022-12-07T08:50:37;3.40;94.30
21108;DHT22;10712;52.944;9.098;2022-12-07T08:53:03;3.40;94.30
21108;DHT22;10712;52.944;9.098;2022-12-07T08:55:31;3.50;94.30
21108;DHT22;10712;52.944;9.098;2022-12-07T08:57:58;3.40;94.30
21108;DHT22;10712;52.944;9.098;2022-12-07T09:00:25;3.50;94.30
21108;DHT22;10712;52.944;9.098;2022-12-07T09:02:51;3.50;94.30
21108;DHT22;10712;52.944;9.098;2022-12-07T09:05:17;3.50;94.30
21108;DHT22;10712;52.944;9.098;2022-12-07T09:07:43;3.50;94.30
21108;DHT22;10712;52.944;9.098;2022-12-07T09:10:11;3.50;94.30
21108;DHT22;10712;52.944;9.098;2022-12-07T09:12:37;3.50;94.30
21108;DHT22;10712;52.944;9.098;2022-12-07T09:15:02;3.60;94.30
21108;DHT22;10712;52.944;9.098;2022-12-07T09:17:31;3.60;94.30
21108;DHT22;10712;52.944;9.098;2022-12-07T09:19:58;3.60;94.30
21108;DHT22;10712;52.944;9.098;2022-12-07T09:22:28;3.60;94.30
21108;DHT22;10712;52.944;9.098;2022-12-07T09:24:54;3.70;94.30
21108;DHT22;10712;52.944;9.098;2022-12-07T09:31:57;3.80;94.30
21108;DHT22;10712;52.944;9.098;2022-12-07T09:34:24;3.80;94.00
21108;DHT22;10712;52.944;9.098;2022-12-07T09:36:51;3.80;93.90
21108;DHT22;10712;52.944;9.098;2022-12-07T09:39:17;3.80;93.80
21108;DHT22;10712;52.944;9.098;2022-12-07T09:41:44;3.80;93.80
21108;DHT22;10712;52.944;9.098;2022-12-07T09:44:21;3.90;93.80
21108;DHT22;10712;52.944;9.098;2022-12-07T09:46:50;3.80;93.70
21108;DHT22;10712;52.944;9.098;2022-12-07T09:49:21;3.90;93.70
21108;DHT22;10712;52.944;9.098;2022-12-07T09:52:22;3.90;93.80
21108;DHT22;10712;52.944;9.098;2022-12-07T09:54:51;3.90;93.60
21108;DHT22;10712;52.944;9.098;2022-12-07T09:57:18;3.90;93.50
21108;DHT22;10712;52.944;9.098;2022-12-07T10:00:00;3.90;93.50
21108;DHT22;10712;52.944;9.098;2022-12-07T10:02:35;3.90;93.40
21108;DHT22;10712;52.944;9.098;2022-12-07T10:05:12;3.90;93.40
21108;DHT22;10712;52.944;9.098;2022-12-07T10:07:40;3.90;93.40
21108;DHT22;10712;52.944;9.098;2022-12-07T10:10:13;4.00;93.50
21108;DHT22;10712;52.944;9.098;2022-12-07T10:13:00;4.00;93.40
21108;DHT22;10712;52.944;9.098;2022-12-07T10:18:30;4.00;93.20
21108;DHT22;10712;52.944;9.098;2022-12-07T10:21:06;4.10;93.20
21108;DHT22;10712;52.944;9.098;2022-12-07T10:23:41;4.10;93.00
21108;DHT22;10712;52.944;9.098;2022-12-07T10:28:54;4.10;92.60
21108;DHT22;10712;52.944;9.098;2022-12-07T10:31:23;4.10;92.60
21108;DHT22;10712;52.944;9.098;2022-12-07T10:36:36;4.10;92.40
21108;DHT22;10712;52.944;9.098;2022-12-07T10:39:19;4.00;92.40
21108;DHT22;10712;52.944;9.098;2022-12-07T10:41:55;4.00;92.40
21108;DHT22;10712;52.944;9.098;2022-12-07T10:44:28;4.00;92.50
21108;DHT22;10712;52.944;9.098;2022-12-07T10:49:42;4.10;92.90
21108;DHT22;10712;52.944;9.098;2022-12-07T10:52:33;4.10;92.80
21108;DHT22;10712;52.944;9.098;2022-12-07T11:04:34;4.20;92.90
21108;DHT22;10712;52.944;9.098;2022-12-07T11:07:39;4.20;92.70
21108;DHT22;10712;52.944;9.098;2022-12-07T11:14:09;4.20;92.30
21108;DHT22;10712;52.944;9.098;2022-12-07T11:16:36;4.20;92.30
21108;DHT22;10712;52.944;9.098;2022-12-07T11:25:32;4.20;92.10
21108;DHT22;10712;52.944;9.098;2022-12-07T11:33:44;4.20;92.10
21108;DHT22;10712;52.944;9.098;2022-12-07T11:36:41;4.30;92.00
21108;DHT22;10712;52.944;9.098;2022-12-07T11:39:19;4.30;92.00
21108;DHT22;10712;52.944;9.098;2022-12-07T11:41:51;4.40;92.10
21108;DHT22;10712;52.944;9.098;2022-12-07T11:50:09;4.50;92.20
21108;DHT22;10712;52.944;9.098;2022-12-07T11:52:58;4.60;91.90
21108;DHT22;10712;52.944;9.098;2022-12-07T11:55:43;4.60;91.70
21108;DHT22;10712;52.944;9.098;2022-12-07T12:03:53;4.60;91.40
21108;DHT22;10712;52.944;9.098;2022-12-07T12:06:24;4.60;91.40
21108;DHT22;10712;52.944;9.098;2022-12-07T12:23:22;4.90;91.20
21108;DHT22;10712;52.944;9.098;2022-12-07T12:26:20;5.00;91.40
21108;DHT22;10712;52.944;9.098;2022-12-07T12:29:05;5.00;91.30
21108;DHT22;10712;52.944;9.098;2022-12-07T12:31:39;5.00;91.30
21108;DHT22;10712;52.944;9.098;2022-12-07T12:34:29;5.10;91.30
21108;DHT22;10712;52.944;9.098;2022-12-07T12:36:55;5.10;91.30
21108;DHT22;10712;52.944;9.098;2022-12-07T12:39:21;5.20;91.30
21108;DHT22;10712;52.944;9.098;2022-12-07T12:47:02;5.20;90.90
21108;DHT22;10712;52.944;9.098;2022-12-07T12:56:07;5.20;90.30
21108;DHT22;10712;52.944;9.098;2022-12-07T13:02:46;5.20;90.10
21108;DHT22;10712;52.944;9.098;2022-12-07T13:15:54;5.20;89.70
21108;DHT22;10712;52.944;9.098;2022-12-07T13:18:41;5.20;89.80
21108;DHT22;10712;52.944;9.098;2022-12-07T13:29:20;5.10;89.90
21108;DHT22;10712;52.944;9.098;2022-12-07T13:31:55;4.90;87.90
21108;DHT22;10712;52.944;9.098;2022-12-07T13:34:36;4.50;86.20
21108;DHT22;10712;52.944;9.098;2022-12-07T13:37:18;4.20;86.90
21108;DHT22;10712;52.944;9.098;2022-12-07T13:42:30;3.70;88.30
21108;DHT22;10712;52.944;9.098;2022-12-07T13:44:58;3.60;88.90
21108;DHT22;10712;52.944;9.098;2022-12-07T13:47:34;3.50;89.20
21108;DHT22;10712;52.944;9.098;2022-12-07T13:50:30;3.50;89.50
21108;DHT22;10712;52.944;9.098;2022-12-07T13:52:59;3.50;89.80
21108;DHT22;10712;52.944;9.098;2022-12-07T13:55:27;3.40;90.00
21108;DHT22;10712;52.944;9.098;2022-12-07T13:57:55;3.40;90.00
21108;DHT22;10712;52.944;9.098;2022-12-07T14:00:24;3.30;90.10
21108;DHT22;10712;52.944;9.098;2022-12-07T14:02:58;3.30;90.60
21108;DHT22;10712;52.944;9.098;2022-12-07T14:05:31;3.30;90.70
21108;DHT22;10712;52.944;9.098;2022-12-07T14:10:52;3.20;90.90
21108;DHT22;10712;52.944;9.098;2022-12-07T14:14:00;3.20;91.00
21108;DHT22;10712;52.944;9.098;2022-12-07T14:16:28;3.20;91.30
21108;DHT22;10712;52.944;9.098;2022-12-07T14:19:40;3.30;91.40
21108;DHT22;10712;52.944;9.098;2022-12-07T14:22:17;3.30;91.40
21108;DHT22;10712;52.944;9.098;2022-12-07T14:24:44;3.30;91.70
21108;DHT22;10712;52.944;9.098;2022-12-07T14:27:23;3.30;91.80
21108;DHT22;10712;52.944;9.098;2022-12-07T14:29:51;3.40;91.80
21108;DHT22;10712;52.944;9.098;2022-12-07T14:32:24;3.40;91.90
21108;DHT22;10712;52.944;9.098;2022-12-07T14:37:39;3.40;92.40
21108;DHT22;10712;52.944;9.098;2022-12-07T14:40:09;3.50;92.60
21108;DHT22;10712;52.944;9.098;2022-12-07T14:42:42;3.50;92.70
21108;DHT22;10712;52.944;9.098;2022-12-07T14:45:21;3.50;92.70
21108;DHT22;10712;52.944;9.098;2022-12-07T14:47:49;3.60;92.80
21108;DHT22;10712;52.944;9.098;2022-12-07T14:50:17;3.60;92.90
21108;DHT22;10712;52.944;9.098;2022-12-07T14:52:54;3.60;93.00
21108;DHT22;10712;52.944;9.098;2022-12-07T14:55:29;3.60;92.70
21108;DHT22;10712;52.944;9.098;2022-12-07T14:57:56;3.60;92.60
21108;DHT22;10712;52.944;9.098;2022-12-07T15:00:25;3.60;92.60
21108;DHT22;10712;52.944;9.098;2022-12-07T15:02:52;3.60;92.70
21108;DHT22;10712;52.944;9.098;2022-12-07T15:05:18;3.60;92.90
21108;DHT22;10712;52.944;9.098;2022-12-07T15:07:46;3.60;93.00
21108;DHT22;10712;52.944;9.098;2022-12-07T15:10:24;3.60;92.90
21108;DHT22;10712;52.944;9.098;2022-12-07T15:12:57;3.60;92.80
21108;DHT22;10712;52.944;9.098;2022-12-07T15:15:48;3.60;92.80
21108;DHT22;10712;52.944;9.098;2022-12-07T15:18:16;3.50;93.00
21108;DHT22;10712;52.944;9.098;2022-12-07T15:20:42;3.50;93.10
21108;DHT22;10712;52.944;9.098;2022-12-07T15:23:09;3.60;93.30
21108;DHT22;10712;52.944;9.098;2022-12-07T15:25:35;3.60;93.20
21108;DHT22;10712;52.944;9.098;2022-12-07T15:28:02;3.50;93.30
21108;DHT22;10712;52.944;9.098;2022-12-07T15:30:28;3.50;93.40
21108;DHT22;10712;52.944;9.098;2022-12-07T15:32:54;3.50;93.40
21108;DHT22;10712;52.944;9.098;2022-12-07T15:35:20;3.60;93.40
21108;DHT22;10712;52.944;9.098;2022-12-07T15:37:46;3.50;93.50
21108;DHT22;10712;52.944;9.098;2022-12-07T15:40:13;3.50;93.50
21108;DHT22;10712;52.944;9.098;2022-12-07T15:42:39;3.50;93.60
21108;DHT22;10712;52.944;9.098;2022-12-07T15:45:07;3.60;93.60
21108;DHT22;10712;52.944;9.098;2022-12-07T15:47:36;3.50;93.60
21108;DHT22;10712;52.944;9.098;2022-12-07T15:50:09;3.50;93.70
21108;DHT22;10712;52.944;9.098;2022-12-07T15:52:38;3.50;93.90
21108;DHT22;10712;52.944;9.098;2022-12-07T15:55:04;3.50;93.70
21108;DHT22;10712;52.944;9.098;2022-12-07T15:57:32;3.50;93.80
21108;DHT22;10712;52.944;9.098;2022-12-07T15:59:59;3.50;93.80
21108;DHT22;10712;52.944;9.098;2022-12-07T16:02:25;3.50;93.70
21108;DHT22;10712;52.944;9.098;2022-12-07T16:04:51;3.50;93.80
21108;DHT22;10712;52.944;9.098;2022-12-07T16:07:18;3.50;93.90
21108;DHT22;10712;52.944;9.098;2022-12-07T16:09:45;3.40;93.70
21108;DHT22;10712;52.944;9.098;2022-12-07T16:12:12;3.40;93.70
21108;DHT22;10712;52.944;9.098;2022-12-07T16:14:39;3.40;93.50
21108;DHT22;10712;52.944;9.098;2022-12-07T16:17:07;3.40;93.60
21108;DHT22;10712;52.944;9.098;2022-12-07T16:19:34;3.40;93.40
21108;DHT22;10712;52.944;9.098;2022-12-07T16:22:01;3.30;93.30
21108;DHT22;10712;52.944;9.098;2022-12-07T16:24:29;3.30;93.20
21108;DHT22;10712;52.944;9.098;2022-12-07T16:26:55;3.20;93.10
21108;DHT22;10712;52.944;9.098;2022-12-07T16:29:21;3.20;93.00
21108;DHT22;10712;52.944;9.098;2022-12-07T16:31:48;3.20;93.00
21108;DHT22;10712;52.944;9.098;2022-12-07T16:34:16;3.20;92.90
21108;DHT22;10712;52.944;9.098;2022-12-07T16:36:42;3.10;92.90
21108;DHT22;10712;52.944;9.098;2022-12-07T16:39:08;3.10;92.90
21108;DHT22;10712;52.944;9.098;2022-12-07T16:41:35;3.10;92.90
21108;DHT22;10712;52.944;9.098;2022-12-07T16:44:05;3.10;92.80
21108;DHT22;10712;52.944;9.098;2022-12-07T16:46:34;3.10;92.80
21108;DHT22;10712;52.944;9.098;2022-12-07T16:49:02;3.10;92.70
21108;DHT22;10712;52.944;9.098;2022-12-07T16:51:28;3.10;92.70
21108;DHT22;10712;52.944;9.098;2022-12-07T16:53:54;3.00;92.70
21108;DHT22;10712;52.944;9.098;2022-12-07T16:56:20;3.00;92.70
21108;DHT22;10712;52.944;9.098;2022-12-07T16:58:46;3.00;92.70
21108;DHT22;10712;52.944;9.098;2022-12-07T17:01:19;3.00;92.70
21108;DHT22;10712;52.944;9.098;2022-12-07T17:03:48;3.00;92.70
21108;DHT22;10712;52.944;9.098;2022-12-07T17:06:19;3.00;92.70
21108;DHT22;10712;52.944;9.098;2022-12-07T17:08:47;3.00;92.80
21108;DHT22;10712;52.944;9.098;2022-12-07T17:11:18;3.00;92.90
21108;DHT22;10712;52.944;9.098;2022-12-07T17:13:46;3.00;92.90
21108;DHT22;10712;52.944;9.098;2022-12-07T17:16:31;3.00;92.80
21108;DHT22;10712;52.944;9.098;2022-12-07T17:18:57;3.00;92.90
21108;DHT22;10712;52.944;9.098;2022-12-07T17:21:24;3.00;92.90
21108;DHT22;10712;52.944;9.098;2022-12-07T17:23:51;3.00;93.00
21108;DHT22;10712;52.944;9.098;2022-12-07T17:26:22;3.00;93.10
21108;DHT22;10712;52.944;9.098;2022-12-07T17:28:50;3.00;93.30
21108;DHT22;10712;52.944;9.098;2022-12-07T17:31:18;3.10;93.40
21108;DHT22;10712;52.944;9.098;2022-12-07T17:33:45;3.10;93.40
21108;DHT22;10712;52.944;9.098;2022-12-07T17:36:12;3.10;93.50
21108;DHT22;10712;52.944;9.098;2022-12-07T17:38:40;3.10;93.40
21108;DHT22;10712;52.944;9.098;2022-12-07T17:41:23;3.10;93.60
21108;DHT22;10712;52.944;9.098;2022-12-07T17:44:12;3.10;93.60
21108;DHT22;10712;52.944;9.098;2022-12-07T17:46:40;3.10;93.70
21108;DHT22;10712;52.944;9.098;2022-12-07T17:49:07;3.00;93.70
21108;DHT22;10712;52.944;9.098;2022-12-07T17:51:33;3.00;93.70
21108;DHT22;10712;52.944;9.098;2022-12-07T17:54:18;2.90;93.80
21108;DHT22;10712;52.944;9.098;2022-12-07T17:56:45;2.90;93.90
21108;DHT22;10712;52.944;9.098;2022-12-07T17:59:11;2.90;94.00
21108;DHT22;10712;52.944;9.098;2022-12-07T18:01:38;2.90;94.10
21108;DHT22;10712;52.944;9.098;2022-12-07T18:04:04;2.90;94.20
21108;DHT22;10712;52.944;9.098;2022-12-07T18:06:31;2.90;94.20
21108;DHT22;10712;52.944;9.098;2022-12-07T18:08:58;2.90;94.30
21108;DHT22;10712;52.944;9.098;2022-12-07T18:11:24;2.90;94.30
21108;DHT22;10712;52.944;9.098;2022-12-07T18:13:51;2.90;94.30
21108;DHT22;10712;52.944;9.098;2022-12-07T18:16:20;3.00;94.30
21108;DHT22;10712;52.944;9.098;2022-12-07T18:18:51;3.00;94.30
21108;DHT22;10712;52.944;9.098;2022-12-07T18:21:23;3.00;94.30
21108;DHT22;10712;52.944;9.098;2022-12-07T18:23:53;3.00;94.30
21108;DHT22;10712;52.944;9.098;2022-12-07T18:26:21;3.00;94.30